Time;durP1;ratioP1;P1;durP2;ratioP2;P2;SDS_P1;SDS_P2;PMS_P1;PMS_P2;Temp;Humidity;BMP_temperature;BMP_pressure;BME280_temperature;BME280_humidity;BME280_pressure;Samples;Min_cycle;Max_cycle;Signal;HPM_P1;HPM_P2
2023/03/14 00:00:34;;;;;;;67.15;5.88;;;11.60;99.90;;;;;;5039460;28;20176;-84
2023/03/14 00:03:22;;;;;;;69.32;5.50;;;11.60;99.90;;;;;;5058547;28;20208;-85
2023/03/14 00:06:23;;;;;;;69.63;5.22;;;11.50;99.90;;;;;;5060277;28;20195;-85
2023/03/14 00:12:11;;;;;;;73.55;6.32;;;11.50;99.90;;;;;;5059493;28;20168;-84
2023/03/14 00:14:59;;;;;;;67.22;5.57;;;11.50;99.90;;;;;;5041628;28;20172;-84
2023/03/14 00:17:39;;;;;;;67.13;5.45;;;11.50;99.90;;;;;;5041435;28;20229;-84
2023/03/14 00:20:19;;;;;;;70.07;6.00;;;11.50;99.90;;;;;;5041036;28;20195;-84
2023/03/14 00:23:02;;;;;;;74.18;7.78;;;11.50;99.90;;;;;;5040446;28;20265;-85
2023/03/14 00:25:44;;;;;;;;;;;;;;;;;;;;;
2023/03/14 00:28:55;;;;;;;68.53;5.38;;;11.50;99.90;;;;;;5058502;28;20241;-84
2023/03/14 00:31:30;;;;;;;71.03;6.80;;;11.50;99.90;;;;;;4980181;28;20200;-84
2023/03/14 00:34:07;;;;;;;70.05;5.90;;;11.60;99.80;;;;;;5030710;28;20196;-83
2023/03/14 00:36:33;;;;;;;72.03;6.65;;;11.60;99.60;;;;;;5058323;28;20155;-84
2023/03/14 00:39:13;;;;;;;67.00;5.70;;;11.60;99.90;;;;;;5039257;28;20177;-83
2023/03/14 00:41:59;;;;;;;71.90;6.50;;;11.60;98.70;;;;;;5055372;28;20411;-83
2023/03/14 00:44:46;;;;;;;69.68;5.30;;;11.60;99.90;;;;;;5055676;28;20199;-83
2023/03/14 00:47:29;;;;;;;65.70;5.38;;;11.70;98.90;;;;;;5056329;28;20195;-83
2023/03/14 00:50:13;;;;;;;67.60;5.13;;;11.70;95.50;;;;;;5056407;28;20155;-83
2023/03/14 00:52:59;;;;;;;68.47;5.85;;;11.70;96.30;;;;;;5055686;28;20180;-83
2023/03/14 00:56:09;;;;;;;66.10;5.97;;;11.70;96.70;;;;;;5056018;28;20623;-83
2023/03/14 00:58:48;;;;;;;67.75;5.15;;;11.70;97.50;;;;;;5037115;28;20547;-83
2023/03/14 01:01:29;;;;;;;68.60;6.50;;;11.70;97.00;;;;;;5039136;28;20171;-84
2023/03/14 01:04:07;;;;;;;70.53;7.45;;;11.70;97.90;;;;;;5038249;28;20345;-83
2023/03/14 01:06:50;;;;;;;;;;;;;;;;;;;;;
2023/03/14 01:09:46;;;;;;;68.78;6.47;;;11.70;99.40;;;;;;5055900;28;20172;-84
2023/03/14 01:12:21;;;;;;;69.72;7.80;;;11.70;99.90;;;;;;5055440;28;20195;-83
2023/03/14 01:14:54;;;;;;;67.15;5.95;;;11.70;99.90;;;;;;5040064;28;20199;-84
2023/03/14 01:17:20;;;;;;;72.00;7.47;;;11.70;99.90;;;;;;5042014;28;20161;-85
2023/03/14 01:19:46;;;;;;;69.97;10.70;;;11.70;99.90;;;;;;5059343;28;20175;-85
2023/03/14 01:22:12;;;;;;;70.77;8.67;;;11.70;99.90;;;;;;5041664;28;20454;-85
2023/03/14 01:24:38;;;;;;;74.90;7.73;;;11.70;99.90;;;;;;5042264;28;20644;-85
2023/03/14 01:27:06;;;;;;;66.97;7.80;;;11.60;99.90;;;;;;5059955;28;20156;-85
2023/03/14 01:29:39;;;;;;;64.90;6.15;;;11.50;99.90;;;;;;5059630;28;20537;-84
2023/03/14 01:32:14;;;;;;;68.60;5.90;;;11.40;99.90;;;;;;5059871;28;20556;-85
2023/03/14 01:34:45;;;;;;;69.35;8.13;;;11.30;99.90;;;;;;5042389;28;20635;-85
2023/03/14 01:37:18;;;;;;;67.32;9.48;;;11.20;99.90;;;;;;5056482;28;20179;-84
2023/03/14 01:40:16;;;;;;;75.82;11.55;;;11.00;99.90;;;;;;5037845;28;20165;-84
2023/03/14 01:43:02;;;;;;;72.40;11.90;;;10.80;99.90;;;;;;5033923;28;20209;-84
2023/03/14 01:46:10;;;;;;;68.70;12.70;;;10.80;99.90;;;;;;5060874;28;20641;-85
2023/03/14 01:48:51;;;;;;;72.10;13.30;;;10.60;99.90;;;;;;5059411;28;20183;-86
2023/03/14 01:51:35;;;;;;;67.03;10.80;;;10.70;99.90;;;;;;5059472;28;20164;-85
2023/03/14 01:54:34;;;;;;;69.63;11.82;;;10.50;99.90;;;;;;5057633;28;20244;-85
2023/03/14 01:57:34;;;;;;;69.80;11.88;;;10.40;99.90;;;;;;5057534;28;20153;-84
2023/03/14 02:00:35;;;;;;;71.68;15.95;;;10.40;99.90;;;;;;5036589;28;20184;-84
2023/03/14 02:03:56;;;;;;;;;;;;;;;;;;;;;
2023/03/14 02:07:18;;;;;;;76.00;16.25;;;10.10;99.90;;;;;;5054212;28;20164;-83
2023/03/14 02:10:34;;;;;;;73.07;17.55;;;10.00;99.90;;;;;;5054493;28;20167;-84
2023/03/14 02:17:00;;;;;;;73.90;18.42;;;10.00;99.90;;;;;;5025836;28;20175;-83
2023/03/14 02:27:50;;;;;;;;;;;;;;;;;;;;;
2023/03/14 02:31:14;;;;;;;;;;;;;;;;;;;;;
2023/03/14 02:34:27;;;;;;;70.68;15.82;;;9.60;99.90;;;;;;5128337;22;20231;-84
2023/03/14 02:40:48;;;;;;;69.68;14.43;;;9.60;99.90;;;;;;5038049;28;20204;-84
2023/03/14 02:43:55;;;;;;;;;;;;;;;;;;;;;
2023/03/14 03:01:21;;;;;;;70.15;18.80;;;9.60;99.90;;;;;;4964505;28;20186;-86
2023/03/14 03:04:23;;;;;;;;;;;;;;;;;;;;;
2023/03/14 03:17:51;;;;;;;74.10;19.73;;;9.80;99.90;;;;;;4938461;29;20200;-85
2023/03/14 03:21:02;;;;;;;72.95;18.67;;;9.90;99.90;;;;;;4989517;28;20273;-86
2023/03/14 03:28:07;;;;;;;74.05;19.83;;;10.00;99.90;;;;;;4938681;29;20160;-85
2023/03/14 03:34:36;;;;;;;79.13;18.70;;;10.00;99.90;;;;;;4919141;29;20269;-84
2023/03/14 03:37:37;;;;;;;;;;;;;;;;;;;;;
2023/03/14 03:40:23;;;;;;;79.18;22.65;;;10.10;99.90;;;;;;4904640;29;20184;-84
2023/03/14 03:43:27;;;;;;;80.70;17.48;;;10.10;99.90;;;;;;4918878;29;20213;-84
2023/03/14 03:46:48;;;;;;;75.88;17.95;;;10.10;99.90;;;;;;4919368;29;20290;-85
2023/03/14 03:49:13;;;;;;;;;;;;;;;;;;;;;
2023/03/14 03:55:27;;;;;;;69.53;6.15;;;10.10;99.90;;;;;;5006499;28;20175;-84
2023/03/14 03:58:37;;;;;;;;;;;;;;;;;;;;;
2023/03/14 04:01:11;;;;;;;77.82;13.57;;;10.20;99.90;;;;;;5037137;28;20163;-83
2023/03/14 04:04:11;;;;;;;69.20;13.98;;;10.20;99.90;;;;;;5037769;28;20205;-84
2023/03/14 04:07:09;;;;;;;;;;;;;;;;;;;;;
2023/03/14 04:09:37;;;;;;;69.90;10.77;;;10.30;99.90;;;;;;5038130;28;20536;-84
2023/03/14 04:12:32;;;;;;;72.03;9.45;;;10.30;99.90;;;;;;5036855;28;20212;-84
2023/03/14 04:15:10;;;;;;;;;;;;;;;;;;;;;
2023/03/14 04:17:45;;;;;;;74.85;15.43;;;10.30;99.90;;;;;;5037396;28;20162;-84
2023/03/14 04:20:22;;;;;;;71.82;18.52;;;10.20;99.90;;;;;;5019148;28;20197;-83
2023/03/14 04:22:48;;;;;;;77.28;19.73;;;10.20;99.90;;;;;;5037482;28;20631;-84
2023/03/14 04:25:16;;;;;;;73.00;20.10;;;10.20;99.90;;;;;;5041327;28;20199;-85
2023/03/14 04:27:42;;;;;;;71.03;17.83;;;10.20;99.90;;;;;;5020403;28;20223;-83
2023/03/14 04:30:08;;;;;;;72.30;18.17;;;10.20;99.90;;;;;;5038746;28;20628;-84
2023/03/14 04:32:34;;;;;;;68.80;12.38;;;10.10;99.90;;;;;;5039207;28;20204;-83
2023/03/14 04:35:24;;;;;;;;;;;;;;;;;;;;;
2023/03/14 04:38:13;;;;;;;;;;;;;;;;;;;;;
2023/03/14 04:40:52;;;;;;;71.50;13.75;;;10.10;99.90;;;;;;5039005;28;20708;-85
2023/03/14 04:43:18;;;;;;;71.95;23.13;;;10.10;99.90;;;;;;5038128;28;20212;-85
2023/03/14 04:45:44;;;;;;;77.20;23.80;;;10.10;99.90;;;;;;5039760;28;20599;-85
2023/03/14 04:48:10;;;;;;;72.97;24.98;;;10.00;99.90;;;;;;5040701;28;20161;-84
2023/03/14 04:50:36;;;;;;;75.35;23.92;;;10.00;99.90;;;;;;5040097;28;20203;-84
2023/03/14 04:53:02;;;;;;;71.87;21.27;;;10.00;99.90;;;;;;5039161;28;20240;-84
2023/03/14 04:55:27;;;;;;;75.47;26.70;;;10.10;99.90;;;;;;5039834;28;20625;-85
2023/03/14 04:58:17;;;;;;;72.53;22.90;;;10.00;99.90;;;;;;5036539;28;20169;-84
2023/03/14 05:01:06;;;;;;;72.22;21.77;;;9.90;99.90;;;;;;5037043;28;20647;-84
2023/03/14 05:03:52;;;;;;;75.88;23.20;;;9.90;99.90;;;;;;5019340;28;20208;-84
2023/03/14 05:06:46;;;;;;;;;;;;;;;;;;;;;
2023/03/14 05:09:44;;;;;;;71.45;20.98;;;10.00;99.90;;;;;;5037639;28;20246;-84
2023/03/14 05:12:21;;;;;;;72.20;21.58;;;10.00;99.90;;;;;;5034761;28;20192;-85
2023/03/14 05:14:47;;;;;;;70.13;20.52;;;10.00;99.90;;;;;;5018687;28;20165;-84
2023/03/14 05:17:18;;;;;;;72.00;21.93;;;10.00;99.90;;;;;;5035578;28;20192;-84
2023/03/14 05:19:47;;;;;;;72.13;21.83;;;9.90;99.90;;;;;;5035492;28;20169;-84
2023/03/14 05:22:19;;;;;;;71.45;22.15;;;9.90;99.90;;;;;;5035361;28;20193;-84
2023/03/14 05:24:50;;;;;;;71.63;23.25;;;9.90;99.90;;;;;;5035553;28;20176;-85
2023/03/14 05:27:29;;;;;;;70.82;20.40;;;9.90;99.90;;;;;;5029557;28;20173;-83
2023/03/14 05:29:57;;;;;;;71.18;20.90;;;9.90;99.90;;;;;;5034515;28;20563;-84
2023/03/14 05:32:29;;;;;;;72.00;21.30;;;9.90;99.90;;;;;;5035359;28;20185;-84
2023/03/14 05:35:08;;;;;;;72.68;21.23;;;9.90;99.90;;;;;;5034053;28;20173;-84
2023/03/14 05:37:37;;;;;;;72.00;19.67;;;9.90;99.90;;;;;;5035206;28;20160;-84
2023/03/14 05:40:08;;;;;;;70.80;18.88;;;9.90;99.90;;;;;;5015578;28;20265;-84
2023/03/14 05:42:37;;;;;;;70.68;19.88;;;9.90;99.90;;;;;;5035220;28;20189;-84
2023/03/14 05:45:09;;;;;;;70.03;15.63;;;10.00;99.90;;;;;;5035026;28;20164;-84
2023/03/14 05:47:37;;;;;;;69.80;17.98;;;9.90;99.90;;;;;;5035958;28;20153;-83
2023/03/14 05:50:10;;;;;;;72.00;24.02;;;9.90;99.90;;;;;;5017131;28;20173;-83
2023/03/14 05:52:36;;;;;;;70.95;19.77;;;9.90;1.00;;;;;;5034196;28;20243;-83
2023/03/14 05:55:02;;;;;;;67.45;11.88;;;9.90;1.00;;;;;;5035356;28;20165;-84
2023/03/14 05:57:33;;;;;;;72.63;21.55;;;10.00;1.00;;;;;;5035153;28;20173;-83
2023/03/14 06:00:02;;;;;;;67.93;14.27;;;9.90;1.00;;;;;;5017235;28;20165;-84
2023/03/14 06:02:27;;;;;;;69.88;19.63;;;9.90;10.30;;;;;;5038993;28;20188;-84
2023/03/14 06:04:55;;;;;;;70.10;19.17;;;9.90;99.90;;;;;;5038019;28;20168;-83
2023/03/14 06:07:24;;;;;;;71.88;22.13;;;9.90;99.90;;;;;;5034705;28;20161;-83
2023/03/14 06:09:59;;;;;;;73.80;24.02;;;9.80;99.90;;;;;;5033851;28;20165;-84
2023/03/14 06:12:34;;;;;;;74.20;20.73;;;9.90;99.90;;;;;;5035307;28;20192;-85
2023/03/14 06:15:11;;;;;;;70.57;19.55;;;9.80;99.90;;;;;;5037545;28;20168;-85
2023/03/14 06:17:37;;;;;;;72.95;23.90;;;9.90;99.90;;;;;;5037444;28;20149;-85
2023/03/14 06:20:03;;;;;;;72.50;23.00;;;9.80;99.90;;;;;;5037346;28;20514;-84
2023/03/14 06:22:35;;;;;;;71.10;22.38;;;9.80;99.90;;;;;;5037523;28;20510;-85
2023/03/14 06:25:12;;;;;;;70.97;21.63;;;9.80;99.90;;;;;;5037260;28;20500;-83
2023/03/14 06:28:24;;;;;;;71.18;21.67;;;9.90;99.90;;;;;;5036264;28;20218;-85
2023/03/14 06:30:50;;;;;;;71.10;21.70;;;9.90;99.90;;;;;;5017150;28;20657;-85
2023/03/14 06:33:21;;;;;;;69.83;17.70;;;10.00;99.90;;;;;;5036248;28;20195;-84
2023/03/14 06:35:49;;;;;;;70.00;20.05;;;10.00;99.90;;;;;;5035743;28;20903;-83
2023/03/14 06:38:15;;;;;;;71.07;22.98;;;10.00;99.90;;;;;;5035933;28;20173;-84
2023/03/14 06:40:45;;;;;;;69.67;17.70;;;10.10;99.90;;;;;;5019641;28;20201;-84
2023/03/14 06:43:11;;;;;;;70.22;16.77;;;10.10;99.90;;;;;;5035671;28;20193;-83
2023/03/14 06:45:39;;;;;;;68.27;14.03;;;10.20;31.10;;;;;;5037214;28;20187;-84
2023/03/14 06:48:05;;;;;;;69.28;13.63;;;10.20;1.00;;;;;;5037212;28;20529;-84
2023/03/14 06:50:34;;;;;;;66.50;7.67;;;10.30;1.00;;;;;;5038716;28;20157;-84
2023/03/14 06:53:23;;;;;;;66.80;6.97;;;10.40;1.00;;;;;;5038656;28;20432;-84
2023/03/14 06:55:49;;;;;;;68.15;7.70;;;10.40;99.90;;;;;;5030739;28;20184;-84
2023/03/14 06:58:18;;;;;;;66.83;5.37;;;10.40;99.90;;;;;;5040814;28;20165;-84
2023/03/14 07:00:46;;;;;;;65.88;5.03;;;10.60;99.90;;;;;;5040244;28;20162;-83
2023/03/14 07:03:16;;;;;;;65.30;4.95;;;10.60;1.00;;;;;;5040421;28;20193;-83
2023/03/14 07:05:44;;;;;;;66.53;4.85;;;10.60;45.90;;;;;;5040300;28;20241;-84
2023/03/14 07:08:10;;;;;;;65.30;5.18;;;10.70;1.00;;;;;;5039928;28;20161;-83
2023/03/14 07:10:36;;;;;;;67.30;4.10;;;10.70;1.00;;;;;;5037692;28;20165;-83
2023/03/14 07:13:02;;;;;;;65.60;5.25;;;10.70;99.90;;;;;;5038988;28;20477;-83
2023/03/14 07:15:28;;;;;;;64.90;4.53;;;10.80;99.90;;;;;;5039647;28;20177;-84
2023/03/14 07:17:54;;;;;;;64.97;3.90;;;10.90;99.90;;;;;;5037711;28;20420;-82
2023/03/14 07:20:28;;;;;;;64.80;4.70;;;10.90;57.30;;;;;;5037909;28;20173;-83
2023/03/14 07:22:54;;;;;;;65.20;4.95;;;10.90;80.40;;;;;;5039311;28;20199;-84
2023/03/14 07:25:26;;;;;;;65.10;3.90;;;10.90;1.00;;;;;;5039018;28;20169;-83
2023/03/14 07:27:52;;;;;;;64.85;4.78;;;10.90;1.00;;;;;;5039248;28;20536;-83
2023/03/14 07:30:18;;;;;;;65.68;4.22;;;10.90;1.00;;;;;;5039269;28;20192;-84
2023/03/14 07:32:43;;;;;;;64.87;4.30;;;11.00;99.90;;;;;;5038692;28;20191;-83
2023/03/14 07:35:09;;;;;;;65.10;5.07;;;11.00;1.00;;;;;;5039357;28;20171;-83
2023/03/14 07:37:35;;;;;;;64.93;4.40;;;11.00;1.00;;;;;;5038263;28;20722;-83
2023/03/14 07:40:01;;;;;;;64.67;3.67;;;11.20;1.00;;;;;;5038615;28;20915;-84
2023/03/14 07:42:26;;;;;;;64.97;5.30;;;11.30;1.00;;;;;;5038391;28;20193;-84
2023/03/14 07:45:09;;;;;;;64.50;4.30;;;11.30;99.90;;;;;;5038379;28;20165;-83
2023/03/14 07:47:35;;;;;;;64.95;4.15;;;11.40;99.90;;;;;;5040652;28;20157;-84
2023/03/14 07:50:07;;;;;;;64.75;4.72;;;11.50;45.30;;;;;;5040316;28;20177;-84
2023/03/14 07:52:38;;;;;;;66.75;6.38;;;11.70;99.90;;;;;;5040378;28;20189;-84
2023/03/14 07:55:07;;;;;;;65.30;4.47;;;11.80;99.90;;;;;;5039805;28;20153;-84
2023/03/14 07:57:33;;;;;;;66.85;5.72;;;12.00;99.90;;;;;;5039556;28;20250;-84
2023/03/14 08:00:02;;;;;;;65.87;5.43;;;12.00;99.90;;;;;;5039126;28;20201;-84
2023/03/14 08:02:31;;;;;;;69.38;5.85;;;12.10;56.70;;;;;;5038283;28;20745;-83
2023/03/14 08:04:59;;;;;;;65.05;5.40;;;12.00;1.00;;;;;;5039970;28;20161;-84
2023/03/14 08:07:34;;;;;;;65.53;4.18;;;12.10;1.00;;;;;;5037803;28;20260;-84
2023/03/14 08:09:59;;;;;;;68.13;5.45;;;12.00;1.00;;;;;;5039345;28;20149;-84
2023/03/14 08:12:30;;;;;;;65.27;4.50;;;11.90;1.00;;;;;;5038952;28;20181;-83
2023/03/14 08:15:09;;;;;;;68.97;5.07;;;11.90;1.00;;;;;;5038144;28;20172;-84
2023/03/14 08:17:36;;;;;;;67.07;4.68;;;11.80;1.00;;;;;;5039797;28;20146;-84
2023/03/14 08:20:02;;;;;;;66.55;5.75;;;11.90;1.00;;;;;;5039049;28;20252;-84
2023/03/14 08:22:28;;;;;;;72.25;5.28;;;11.90;1.00;;;;;;5038545;28;20239;-84
2023/03/14 08:24:57;;;;;;;68.70;4.87;;;12.00;1.00;;;;;;5038658;28;20718;-84
2023/03/14 08:27:25;;;;;;;66.68;5.15;;;12.20;1.00;;;;;;5038803;28;20184;-84
2023/03/14 08:29:57;;;;;;;66.75;3.75;;;12.20;1.00;;;;;;5037674;28;20172;-84
2023/03/14 08:32:25;;;;;;;63.88;3.17;;;12.30;99.90;;;;;;5037385;28;20200;-83
2023/03/14 08:34:56;;;;;;;64.25;3.55;;;12.40;99.90;;;;;;5036734;28;20276;-84
2023/03/14 08:37:26;;;;;;;64.68;4.10;;;12.30;99.90;;;;;;5038091;28;20247;-84
2023/03/14 08:39:59;;;;;;;66.38;4.05;;;12.30;99.90;;;;;;5038385;28;20165;-84
2023/03/14 08:42:37;;;;;;;64.97;3.22;;;12.30;99.90;;;;;;5038176;28;20196;-83
2023/03/14 08:45:04;;;;;;;64.20;3.60;;;12.30;99.90;;;;;;5037804;28;20555;-83
2023/03/14 08:47:30;;;;;;;68.63;3.30;;;12.30;99.90;;;;;;5036666;28;20517;-83
2023/03/14 08:50:03;;;;;;;64.88;3.28;;;12.40;99.90;;;;;;5037883;28;20192;-83
2023/03/14 08:52:30;;;;;;;64.35;3.53;;;12.40;99.90;;;;;;5036265;28;20188;-84
2023/03/14 08:54:56;;;;;;;64.75;3.67;;;12.40;99.90;;;;;;5036538;28;20223;-83
2023/03/14 08:57:27;;;;;;;64.37;3.83;;;12.30;99.90;;;;;;5039939;28;20169;-83
2023/03/14 08:59:56;;;;;;;63.85;3.60;;;12.30;99.90;;;;;;5040089;28;20154;-83
2023/03/14 09:02:25;;;;;;;64.07;3.13;;;12.30;99.90;;;;;;5038232;28;20193;-83
2023/03/14 09:04:51;;;;;;;64.05;3.47;;;12.20;99.90;;;;;;5038940;28;20233;-83
2023/03/14 09:07:18;;;;;;;63.67;3.00;;;12.10;99.90;;;;;;5039215;28;20157;-83
2023/03/14 09:09:43;;;;;;;63.70;3.25;;;12.10;1.00;;;;;;5040175;28;20160;-84
2023/03/14 09:12:09;;;;;;;63.97;4.17;;;12.10;1.00;;;;;;5039164;28;20189;-84
2023/03/14 09:14:37;;;;;;;63.77;3.43;;;11.90;1.00;;;;;;5037790;28;20426;-84
2023/03/14 09:17:04;;;;;;;64.20;4.20;;;12.00;1.00;;;;;;5039291;28;20180;-84
2023/03/14 09:19:32;;;;;;;64.43;4.45;;;12.00;60.90;;;;;;5021686;28;20169;-84
2023/03/14 09:21:58;;;;;;;64.47;3.92;;;12.00;99.90;;;;;;5038820;28;20197;-84
2023/03/14 09:24:26;;;;;;;64.43;4.00;;;11.90;99.90;;;;;;5037587;28;20193;-85
2023/03/14 09:27:13;;;;;;;64.72;4.65;;;11.80;99.90;;;;;;5038318;28;20165;-84
2023/03/14 09:29:42;;;;;;;68.05;6.38;;;11.80;1.00;;;;;;5022678;28;20184;-84
2023/03/14 09:32:08;;;;;;;65.00;6.65;;;11.90;99.90;;;;;;5038934;28;20196;-84
2023/03/14 09:34:33;;;;;;;65.28;3.80;;;11.70;99.90;;;;;;5040006;28;20244;-85
2023/03/14 09:37:00;;;;;;;64.17;4.67;;;11.70;1.00;;;;;;5041846;28;20196;-87
2023/03/14 09:39:26;;;;;;;67.47;11.63;;;11.60;1.00;;;;;;5042569;28;20223;-87
2023/03/14 09:41:54;;;;;;;65.37;5.33;;;11.10;99.90;;;;;;5025378;28;20228;-86
2023/03/14 09:44:39;;;;;;;64.43;5.95;;;10.50;18.00;;;;;;5042168;28;20165;-85
2023/03/14 09:47:13;;;;;;;65.68;5.53;;;10.20;99.90;;;;;;5041399;28;20276;-86
2023/03/14 09:49:42;;;;;;;66.15;9.05;;;10.00;49.40;;;;;;5041541;28;20145;-85
2023/03/14 09:52:19;;;;;;;66.60;6.05;;;10.00;19.60;;;;;;5040577;28;20235;-85
2023/03/14 09:54:58;;;;;;;64.85;5.70;;;9.90;99.90;;;;;;5041253;28;20164;-85
2023/03/14 09:57:26;;;;;;;65.28;5.90;;;9.90;1.00;;;;;;5041761;28;20183;-85
2023/03/14 09:59:56;;;;;;;67.03;9.13;;;9.90;1.00;;;;;;5042628;28;20169;-85
2023/03/14 10:02:24;;;;;;;67.43;10.98;;;9.70;99.90;;;;;;5041454;28;20219;-85
2023/03/14 10:04:52;;;;;;;80.43;36.72;;;9.60;1.00;;;;;;5039432;28;20188;-84
2023/03/14 10:07:22;;;;;;;69.22;17.30;;;9.60;96.00;;;;;;5024157;28;20179;-85
2023/03/14 10:09:50;;;;;;;73.57;27.15;;;9.50;1.00;;;;;;5025534;28;20235;-85
2023/03/14 10:12:18;;;;;;;73.25;24.05;;;9.50;85.20;;;;;;5023686;28;20204;-86
2023/03/14 10:14:49;;;;;;;80.03;35.28;;;9.50;99.90;;;;;;5041628;28;20217;-85
2023/03/14 10:17:18;;;;;;;77.10;28.75;;;9.50;1.00;;;;;;5040118;28;20211;-86
2023/03/14 10:19:59;;;;;;;82.75;38.35;;;9.40;99.90;;;;;;5023914;28;20165;-86
2023/03/14 10:22:28;;;;;;;70.50;20.65;;;9.30;33.50;;;;;;5040388;28;20530;-85
2023/03/14 10:25:05;;;;;;;71.22;22.13;;;9.30;99.90;;;;;;5023808;28;20645;-86
2023/03/14 10:27:35;;;;;;;70.93;19.75;;;9.20;99.90;;;;;;5045517;28;20571;-85
2023/03/14 10:30:07;;;;;;;72.40;25.52;;;9.20;99.90;;;;;;5045475;28;20180;-85
2023/03/14 10:32:38;;;;;;;71.65;24.00;;;9.10;52.70;;;;;;5026832;28;20189;-85
2023/03/14 10:35:07;;;;;;;72.10;24.35;;;9.10;99.90;;;;;;5027325;28;20648;-85
2023/03/14 10:37:33;;;;;;;72.07;23.70;;;9.10;99.90;;;;;;5027474;28;20196;-85
2023/03/14 10:40:07;;;;;;;72.47;26.10;;;9.20;1.00;;;;;;5026770;28;20172;-86
2023/03/14 10:42:41;;;;;;;71.28;21.85;;;9.20;1.00;;;;;;5042037;28;20487;-85
2023/03/14 10:45:41;;;;;;;73.80;26.25;;;9.20;1.00;;;;;;5044728;28;20152;-85
2023/03/14 10:48:22;;;;;;;72.22;19.05;;;9.20;1.00;;;;;;5044333;28;20161;-85
2023/03/14 10:51:16;;;;;;;72.35;24.00;;;9.10;1.00;;;;;;5026830;28;20204;-84
2023/03/14 10:53:57;;;;;;;72.18;21.27;;;9.10;1.00;;;;;;5042722;28;20268;-84
2023/03/14 10:56:25;;;;;;;70.95;21.05;;;9.10;98.40;;;;;;5043284;28;20153;-84
2023/03/14 10:58:55;;;;;;;73.05;26.75;;;9.10;99.90;;;;;;5042696;28;20161;-84
2023/03/14 11:01:49;;;;;;;76.07;30.77;;;9.10;99.90;;;;;;5042376;28;20173;-85
2023/03/14 11:04:26;;;;;;;82.97;42.92;;;9.10;99.90;;;;;;5043631;28;20176;-85
2023/03/14 11:07:02;;;;;;;72.35;22.17;;;9.10;99.90;;;;;;5043053;28;20735;-85
2023/03/14 11:09:37;;;;;;;73.85;27.55;;;9.10;1.00;;;;;;5042706;28;20229;-84
2023/03/14 11:12:33;;;;;;;71.28;18.25;;;9.20;1.00;;;;;;5024641;28;20223;-85
2023/03/14 11:15:10;;;;;;;69.57;17.80;;;9.20;1.00;;;;;;5040749;28;20165;-83
2023/03/14 11:17:39;;;;;;;73.55;23.33;;;9.20;1.00;;;;;;5040639;28;20153;-84
2023/03/14 11:20:14;;;;;;;75.85;22.60;;;9.30;99.90;;;;;;5024679;28;20196;-85
2023/03/14 11:22:54;;;;;;;74.40;25.33;;;9.30;99.90;;;;;;5042646;28;20189;-84
2023/03/14 11:25:50;;;;;;;71.68;23.60;;;9.30;99.90;;;;;;5038985;28;20168;-83
2023/03/14 11:28:36;;;;;;;72.50;25.00;;;9.30;1.00;;;;;;5020784;28;20195;-82
2023/03/14 11:31:28;;;;;;;71.43;22.58;;;9.30;1.00;;;;;;5021733;28;20165;-84
2023/03/14 11:34:13;;;;;;;71.18;22.20;;;9.60;99.90;;;;;;5022842;28;20185;-83
2023/03/14 11:36:47;;;;;;;72.15;21.55;;;9.70;1.00;;;;;;5038282;28;20333;-83
2023/03/14 11:39:18;;;;;;;71.55;17.42;;;9.90;99.90;;;;;;5020723;28;20175;-84
2023/03/14 11:41:48;;;;;;;70.85;16.30;;;10.00;1.00;;;;;;5101589;22;20232;-83
2023/03/14 11:44:30;;;;;;;68.40;8.88;;;10.10;1.00;;;;;;5038315;28;20189;-84
2023/03/14 11:47:08;;;;;;;66.53;5.80;;;10.10;99.90;;;;;;5038406;28;20169;-83
2023/03/14 11:49:49;;;;;;;71.78;17.58;;;10.00;99.90;;;;;;5023689;28;20227;-86
2023/03/14 11:52:46;;;;;;;65.90;9.48;;;9.10;99.90;;;;;;5025302;28;20192;-86
2023/03/14 11:55:22;;;;;;;65.68;7.60;;;8.40;1.00;;;;;;5041792;28;20212;-86
2023/03/14 11:57:50;;;;;;;74.00;16.63;;;8.20;1.00;;;;;;5042366;28;20158;-85
2023/03/14 12:00:17;;;;;;;72.25;18.65;;;8.20;99.90;;;;;;5040946;28;20177;-85
2023/03/14 12:03:09;;;;;;;71.40;21.08;;;8.20;95.70;;;;;;5040372;28;20193;-83
2023/03/14 12:05:56;;;;;;;79.88;31.90;;;8.10;1.00;;;;;;5038589;28;20153;-84
2023/03/14 12:08:33;;;;;;;70.80;14.82;;;8.30;99.90;;;;;;5037675;28;20150;-85
2023/03/14 12:11:17;;;;;;;68.93;14.65;;;8.40;1.00;;;;;;5037779;28;20176;-83
2023/03/14 12:13:48;;;;;;;71.78;20.45;;;8.60;1.00;;;;;;5037819;28;20591;-84
2023/03/14 12:16:23;;;;;;;72.05;20.05;;;8.60;1.00;;;;;;5019911;28;20165;-83
2023/03/14 12:18:50;;;;;;;72.55;24.92;;;8.90;99.90;;;;;;5038429;28;20534;-83
2023/03/14 12:21:17;;;;;;;72.68;23.63;;;8.90;1.00;;;;;;5038911;28;20173;-84
2023/03/14 12:23:48;;;;;;;73.75;25.38;;;9.10;99.90;;;;;;5039428;28;20193;-84
2023/03/14 12:26:21;;;;;;;73.15;24.10;;;8.90;56.40;;;;;;5039006;28;20153;-84
2023/03/14 12:29:14;;;;;;;78.15;31.67;;;8.80;1.00;;;;;;5020778;28;20200;-83
2023/03/14 12:31:46;;;;;;;73.40;22.42;;;8.80;85.30;;;;;;5038330;28;20482;-83
2023/03/14 12:34:12;;;;;;;74.65;17.00;;;8.80;1.00;;;;;;5042157;28;20192;-85
2023/03/14 12:36:49;;;;;;;71.10;20.20;;;8.70;1.00;;;;;;5041506;28;20169;-85
2023/03/14 12:39:33;;;;;;;71.65;18.17;;;8.80;90.20;;;;;;5023572;28;20172;-85
2023/03/14 12:42:07;;;;;;;68.85;15.68;;;8.70;1.00;;;;;;5022589;28;20335;-85
2023/03/14 12:44:32;;;;;;;69.85;13.85;;;8.50;99.90;;;;;;5040387;28;20199;-85
2023/03/14 12:47:16;;;;;;;68.17;13.20;;;8.40;99.90;;;;;;5022367;28;20169;-83
2023/03/14 12:49:43;;;;;;;69.85;18.10;;;8.20;99.90;;;;;;5036975;28;20161;-83
2023/03/14 12:52:19;;;;;;;67.85;14.50;;;8.20;99.90;;;;;;5042009;28;20188;-85
2023/03/14 12:55:39;;;;;;;71.13;10.48;;;8.00;60.60;;;;;;5022229;28;20660;-85
2023/03/14 12:58:39;;;;;;;73.60;10.35;;;8.00;99.90;;;;;;5006395;28;20711;-85
2023/03/14 13:01:07;;;;;;;68.03;11.60;;;7.90;99.90;;;;;;5041832;28;20157;-85
2023/03/14 13:03:45;;;;;;;73.07;16.25;;;8.00;1.00;;;;;;5023646;28;20204;-84
2023/03/14 13:06:12;;;;;;;69.72;15.93;;;7.90;99.90;;;;;;5024242;28;20172;-84
2023/03/14 13:08:40;;;;;;;68.32;15.13;;;8.00;99.90;;;;;;5023836;28;20173;-83
2023/03/14 13:11:16;;;;;;;70.28;13.85;;;8.10;99.90;;;;;;5019128;28;20169;-83
2023/03/14 13:13:47;;;;;;;68.18;13.23;;;8.10;1.00;;;;;;5037370;28;20215;-85
2023/03/14 13:16:19;;;;;;;67.65;10.60;;;8.10;1.00;;;;;;5041678;28;20154;-85
2023/03/14 13:18:48;;;;;;;71.97;14.98;;;7.90;91.20;;;;;;5041012;28;20165;-84
2023/03/14 13:21:19;;;;;;;69.85;18.38;;;7.80;99.90;;;;;;5040307;28;20165;-84
2023/03/14 13:24:20;;;;;;;71.88;21.25;;;7.70;99.90;;;;;;5037568;28;20196;-83
2023/03/14 13:26:46;;;;;;;75.07;18.42;;;7.80;99.90;;;;;;5014077;28;20234;-83
2023/03/14 13:29:23;;;;;;;70.20;18.30;;;7.80;99.90;;;;;;5018998;28;20251;-83
2023/03/14 13:31:52;;;;;;;70.53;15.43;;;7.90;99.90;;;;;;5021539;28;20259;-83
2023/03/14 13:34:18;;;;;;;67.78;9.63;;;8.00;30.60;;;;;;5021078;28;20165;-84
2023/03/14 13:36:44;;;;;;;66.27;7.97;;;8.10;1.00;;;;;;5020497;28;20697;-84
2023/03/14 13:39:13;;;;;;;71.13;9.45;;;8.30;1.00;;;;;;5036586;28;20403;-83
2023/03/14 13:41:46;;;;;;;68.93;11.93;;;8.20;99.90;;;;;;5039309;28;20208;-83
2023/03/14 13:44:52;;;;;;;70.68;12.63;;;8.20;99.90;;;;;;5022635;28;20185;-83
2023/03/14 13:47:20;;;;;;;80.10;31.00;;;7.80;99.90;;;;;;5009602;28;20195;-84
2023/03/14 13:49:48;;;;;;;68.97;13.80;;;7.50;99.90;;;;;;5038670;28;20192;-83
2023/03/14 13:52:36;;;;;;;69.95;10.63;;;7.30;99.90;;;;;;5039878;28;20242;-83
2023/03/14 13:55:03;;;;;;;72.07;14.95;;;7.20;99.90;;;;;;5040038;28;20168;-83
2023/03/14 13:57:44;;;;;;;73.43;9.77;;;7.20;99.90;;;;;;5021007;28;20169;-84
2023/03/14 14:00:20;;;;;;;68.03;9.68;;;7.30;99.90;;;;;;5039123;28;20208;-82
2023/03/14 14:02:47;;;;;;;73.75;10.57;;;7.30;99.90;;;;;;5021038;28;20192;-83
2023/03/14 14:05:13;;;;;;;71.22;10.70;;;7.30;99.90;;;;;;5019988;28;20514;-83
2023/03/14 14:07:40;;;;;;;73.82;11.60;;;7.40;99.90;;;;;;5037715;28;20215;-83
2023/03/14 14:10:11;;;;;;;71.93;11.32;;;7.40;99.90;;;;;;5022081;28;20171;-84
2023/03/14 14:12:43;;;;;;;85.55;12.57;;;7.50;99.90;;;;;;5021369;28;20219;-85
2023/03/14 14:15:16;;;;;;;77.35;11.75;;;7.60;99.90;;;;;;5022528;28;20168;-85
2023/03/14 14:17:47;;;;;;;78.30;12.05;;;7.80;99.90;;;;;;5039486;28;20173;-84
2023/03/14 14:20:35;;;;;;;77.10;12.85;;;7.80;99.90;;;;;;5039331;28;20166;-85
2023/03/14 14:23:10;;;;;;;83.97;12.95;;;7.80;58.10;;;;;;5039046;28;20200;-85
2023/03/14 14:25:37;;;;;;;79.50;11.25;;;7.80;90.50;;;;;;5038610;28;20143;-84
2023/03/14 14:28:20;;;;;;;73.57;10.02;;;8.00;99.90;;;;;;5021266;28;20176;-84
2023/03/14 14:30:45;;;;;;;81.00;14.20;;;8.00;57.80;;;;;;5038478;28;20196;-85
2023/03/14 14:33:17;;;;;;;72.13;12.30;;;8.10;22.60;;;;;;5037783;28;20185;-84
2023/03/14 14:35:51;;;;;;;73.13;13.27;;;8.00;1.00;;;;;;5037941;28;20157;-83
2023/03/14 14:38:18;;;;;;;76.00;12.75;;;8.00;14.30;;;;;;5037965;28;20680;-84